createdAt,value
2022-12-27T00:00:28.012Z,100907.72
2022-12-27T00:03:30.630Z,100905.38
2022-12-27T00:06:32.974Z,100918.81
2022-12-27T00:09:35.603Z,100918.09
2022-12-27T00:12:37.806Z,100919.03
2022-12-27T00:15:40.316Z,100919.31
2022-12-27T00:18:43.034Z,100909.03
2022-12-27T00:21:45.569Z,100899.81
2022-12-27T00:24:47.891Z,100891.94
2022-12-27T00:27:50.452Z,100883.97
2022-12-27T00:30:56.219Z,100880.56
2022-12-27T00:34:03.004Z,100885.88
2022-12-27T00:37:05.182Z,100886.59
2022-12-27T00:40:08.325Z,100906.44
2022-12-27T00:43:10.604Z,100909.28
2022-12-27T00:46:13.639Z,100897.91
2022-12-27T00:49:15.828Z,100892.84
2022-12-27T00:52:18.362Z,100874.31
2022-12-27T00:55:20.719Z,100868.50
2022-12-27T00:58:23.347Z,100860.13
2022-12-27T01:01:27.423Z,100888.50
2022-12-27T01:04:30.118Z,100880.75
2022-12-27T01:07:32.557Z,100864.06
2022-12-27T01:10:35.314Z,100861.66
2022-12-27T01:13:38.886Z,100866.12
2022-12-27T01:16:41.435Z,100852.06
2022-12-27T01:19:43.728Z,100857.81
2022-12-27T01:22:46.268Z,100857.03
2022-12-27T01:25:48.731Z,100854.41
2022-12-27T01:28:52.551Z,100861.06
2022-12-27T01:31:54.719Z,100871.88
2022-12-27T01:34:57.222Z,100845.94
2022-12-27T01:37:59.363Z,100854.63
2022-12-27T01:41:21.792Z,100858.66
2022-12-27T01:44:54.309Z,100867.50
2022-12-27T01:48:05.627Z,100867.41
2022-12-27T01:51:08.640Z,100872.75
2022-12-27T01:54:11.194Z,100874.59
2022-12-27T01:57:13.489Z,100872.59
2022-12-27T02:00:17.497Z,100871.50
2022-12-27T02:03:35.238Z,100875.03
2022-12-27T02:06:39.637Z,100886.91
2022-12-27T02:09:48.137Z,100883.06
2022-12-27T02:12:50.957Z,100884.50
2022-12-27T02:15:53.153Z,100890.19
2022-12-27T02:18:55.635Z,100882.44
2022-12-27T02:22:12.982Z,100887.69
2022-12-27T02:26:02.895Z,100885.63
2022-12-27T02:29:20.373Z,100892.31
2022-12-27T02:32:29.570Z,100901.41
2022-12-27T02:35:54.285Z,100888.91
2022-12-27T02:38:59.829Z,100889.62
2022-12-27T02:42:21.687Z,100868.91
2022-12-27T02:45:48.305Z,100864.50
2022-12-27T02:49:14.296Z,100863.87
2022-12-27T02:53:00.232Z,100859.53
2022-12-27T02:56:45.564Z,100866.72
2022-12-27T03:00:27.574Z,100875.88
2022-12-27T03:03:44.256Z,100876.31
2022-12-27T03:07:19.651Z,100886.06
2022-12-27T03:10:46.730Z,100891.19
2022-12-27T03:14:35.572Z,100891.41
2022-12-27T03:17:49.012Z,100892.19
2022-12-27T03:21:10.938Z,100886.00
2022-12-27T03:24:35.889Z,100899.62
2022-12-27T03:27:42.163Z,100894.75
2022-12-27T03:31:05.997Z,100899.56
2022-12-27T03:34:31.129Z,100898.13
2022-12-27T03:37:56.405Z,100899.19
2022-12-27T03:41:20.776Z,100906.59
2022-12-27T03:44:24.542Z,100906.97
2022-12-27T03:47:47.296Z,100915.88
2022-12-27T03:51:04.993Z,100922.78
2022-12-27T03:54:15.607Z,100916.50
2022-12-27T03:57:20.843Z,100927.16
2022-12-27T04:00:23.343Z,100930.22
2022-12-27T04:03:26.214Z,100924.50
2022-12-27T04:06:28.439Z,100932.81
2022-12-27T04:09:49.704Z,100931.56
2022-12-27T04:13:10.340Z,100940.09
2022-12-27T04:16:31.163Z,100948.38
2022-12-27T04:19:51.944Z,100949.09
2022-12-27T04:23:12.876Z,100950.53
2022-12-27T04:26:33.881Z,100960.81
2022-12-27T04:29:54.768Z,100957.19
2022-12-27T04:33:15.552Z,100960.31
2022-12-27T04:36:17.991Z,100967.56
2022-12-27T04:39:20.187Z,100976.09
2022-12-27T04:42:41.251Z,100984.91
2022-12-27T04:46:02.188Z,100990.19
2022-12-27T04:49:26.971Z,100985.44
2022-12-27T04:52:47.899Z,100998.72
2022-12-27T04:55:50.368Z,101005.63
2022-12-27T04:59:11.121Z,100999.84
2022-12-27T05:02:14.598Z,101010.13
2022-12-27T05:05:17.068Z,101027.47
2022-12-27T05:08:39.559Z,101035.41
2022-12-27T05:12:20.188Z,101041.09
2022-12-27T05:15:22.844Z,101040.69
2022-12-27T05:18:25.093Z,101044.94
2022-12-27T05:21:27.927Z,101041.34
2022-12-27T05:24:49.720Z,101032.50
2022-12-27T05:27:52.250Z,101040.13
2022-12-27T05:30:54.633Z,101046.91
2022-12-27T05:33:58.100Z,101055.13
2022-12-27T05:37:00.289Z,101052.09
2022-12-27T05:40:02.799Z,101066.03
2022-12-27T05:43:05.040Z,101064.94
2022-12-27T05:46:10.325Z,101068.09
2022-12-27T05:49:12.632Z,101077.00
2022-12-27T05:52:15.105Z,101078.69
2022-12-27T05:55:17.671Z,101088.09
2022-12-27T05:58:20.104Z,101091.16
2022-12-27T06:01:22.409Z,101098.72
2022-12-27T06:04:25.026Z,101114.50
2022-12-27T06:07:27.258Z,101114.50
2022-12-27T06:10:29.738Z,101117.00
2022-12-27T06:13:32.085Z,101123.91
2022-12-27T06:16:34.605Z,101125.03
2022-12-27T06:19:36.795Z,101127.00
2022-12-27T06:22:40.991Z,101126.72
2022-12-27T06:25:43.242Z,101131.94
2022-12-27T06:28:45.861Z,101123.88
2022-12-27T06:31:48.097Z,101129.56
2022-12-27T06:34:50.666Z,101132.91
2022-12-27T06:37:52.884Z,101140.25
2022-12-27T06:41:01.305Z,101145.53
2022-12-27T06:44:05.314Z,101144.88
2022-12-27T06:47:07.889Z,101153.59
2022-12-27T06:50:10.419Z,101171.91
2022-12-27T06:53:12.918Z,101173.19
2022-12-27T06:56:20.825Z,101188.81
2022-12-27T06:59:24.045Z,101178.81
2022-12-27T07:02:26.370Z,101187.88
2022-12-27T07:05:28.891Z,101177.19
2022-12-27T07:08:31.095Z,101180.47
2022-12-27T07:11:35.720Z,101187.00
2022-12-27T07:14:37.977Z,101182.87
2022-12-27T07:17:40.468Z,101191.09
2022-12-27T07:20:43.335Z,101184.03
2022-12-27T07:23:45.909Z,101190.09
2022-12-27T07:26:48.048Z,101183.75
2022-12-27T07:29:50.679Z,101205.19
2022-12-27T07:32:52.834Z,101198.03
2022-12-27T07:36:00.459Z,101199.31
2022-12-27T07:39:04.076Z,101204.81
2022-12-27T07:42:08.716Z,101211.59
2022-12-27T07:45:12.595Z,101200.06
2022-12-27T07:48:15.064Z,101203.59
2022-12-27T07:51:17.932Z,101199.00
2022-12-27T07:54:20.469Z,101221.69
2022-12-27T07:57:22.650Z,101234.22
2022-12-27T08:00:25.137Z,101259.06
2022-12-27T08:03:27.581Z,101263.59
2022-12-27T08:06:34.514Z,101277.13
2022-12-27T08:09:40.606Z,101276.81
2022-12-27T08:12:43.175Z,101284.31
2022-12-27T08:15:46.367Z,101282.50
2022-12-27T08:18:48.720Z,101302.94
2022-12-27T08:21:51.215Z,101295.78
2022-12-27T08:24:53.537Z,101306.88
2022-12-27T08:28:06.927Z,101311.81
2022-12-27T08:31:11.307Z,101326.53
2022-12-27T08:34:13.950Z,101328.16
2022-12-27T08:37:16.258Z,101335.09
2022-12-27T08:40:18.866Z,101329.13
2022-12-27T08:43:21.135Z,101329.06
2022-12-27T08:46:23.600Z,101314.66
2022-12-27T08:49:25.818Z,101327.88
2022-12-27T08:52:28.509Z,101338.28
2022-12-27T08:55:31.767Z,101345.37
2022-12-27T08:58:34.263Z,101352.37
2022-12-27T09:01:36.676Z,101359.75
2022-12-27T09:04:39.244Z,101346.69
2022-12-27T09:07:41.876Z,101348.25
2022-12-27T09:10:44.358Z,101342.88
2022-12-27T09:13:46.838Z,101340.91
2022-12-27T09:16:49.407Z,101334.09
2022-12-27T09:19:51.871Z,101326.78
2022-12-27T09:22:54.335Z,101344.44
2022-12-27T09:25:56.607Z,101336.59
2022-12-27T09:28:59.885Z,101362.06
2022-12-27T09:32:02.092Z,101353.13
2022-12-27T09:35:05.209Z,101357.69
2022-12-27T09:38:07.378Z,101357.22
2022-12-27T09:42:44.521Z,101369.31
2022-12-27T09:45:08.768Z,101351.69
2022-12-27T09:48:13.473Z,101356.72
2022-12-27T09:51:23.545Z,101350.31
2022-12-27T09:54:31.379Z,101342.97
2022-12-27T09:57:40.853Z,101365.72
2022-12-27T10:00:46.477Z,101356.53
2022-12-27T10:03:49.935Z,101391.47
2022-12-27T10:07:17.139Z,101373.66
2022-12-27T10:10:41.454Z,101401.72
2022-12-27T10:13:54.327Z,101383.91
2022-12-27T10:17:11.790Z,101385.50
2022-12-27T10:20:22.472Z,101409.69
2022-12-27T10:23:30.129Z,101401.56
2022-12-27T10:26:33.101Z,101436.34
2022-12-27T10:29:36.675Z,101440.47
2022-12-27T10:32:39.356Z,101412.94
2022-12-27T10:35:41.879Z,101429.78
2022-12-27T10:38:44.243Z,101410.88
2022-12-27T10:42:17.661Z,101428.91
2022-12-27T10:45:36.284Z,101429.38
2022-12-27T10:49:11.295Z,101430.37
2022-12-27T10:52:19.831Z,101422.53
2022-12-27T10:55:34.384Z,101440.59
2022-12-27T10:58:41.358Z,101418.50
2022-12-27T11:01:47.742Z,101441.44
2022-12-27T11:04:59.443Z,101432.88
2022-12-27T11:08:19.756Z,101417.31
2022-12-27T11:11:24.734Z,101465.66
2022-12-27T11:14:27.165Z,101449.63
2022-12-27T11:17:42.289Z,101458.22
2022-12-27T11:20:48.898Z,101455.62
2022-12-27T11:23:56.769Z,101453.94
2022-12-27T11:27:00.188Z,101445.09
2022-12-27T11:30:03.409Z,101438.50
2022-12-27T11:33:24.645Z,101415.03
2022-12-27T11:36:31.986Z,101421.09
2022-12-27T11:39:40.872Z,101446.41
2022-12-27T11:42:51.331Z,101447.00
2022-12-27T11:45:55.804Z,101458.81
2022-12-27T11:48:59.030Z,101448.91
2022-12-27T11:52:19.569Z,101432.22
2022-12-27T11:55:50.672Z,101432.12
2022-12-27T11:59:30.763Z,101449.66
2022-12-27T12:02:54.567Z,101444.91
2022-12-27T12:06:15.828Z,101458.06
2022-12-27T12:09:45.866Z,101471.63
2022-12-27T12:13:11.613Z,101446.94
2022-12-27T12:16:29.479Z,101455.69
2022-12-27T12:20:07.513Z,101454.37
2022-12-27T12:23:24.529Z,101453.03
2022-12-27T12:26:36.957Z,101458.72
2022-12-27T12:29:54.071Z,101443.94
2022-12-27T12:33:06.776Z,101473.03
2022-12-27T12:36:30.621Z,101450.09
2022-12-27T12:39:36.003Z,101466.72
2022-12-27T12:42:46.563Z,101447.66
2022-12-27T12:46:02.984Z,101449.44
2022-12-27T12:49:31.775Z,101453.66
2022-12-27T12:53:05.729Z,101455.13
2022-12-27T12:56:43.353Z,101463.56
2022-12-27T12:59:54.659Z,101478.00
2022-12-27T13:03:21.887Z,101479.19
2022-12-27T13:06:56.234Z,101482.44
2022-12-27T13:10:17.069Z,101476.81
2022-12-27T13:13:39.491Z,101480.87
2022-12-27T13:17:18.947Z,101481.00
2022-12-27T13:20:45.857Z,101506.06
2022-12-27T13:24:17.561Z,101506.94
2022-12-27T13:27:40.702Z,101493.09
2022-12-27T13:30:53.059Z,101512.06
2022-12-27T13:34:39.444Z,101516.94
2022-12-27T13:38:03.657Z,101526.97
2022-12-27T13:41:36.952Z,101527.41
2022-12-27T13:45:04.435Z,101532.97
2022-12-27T13:48:28.957Z,101543.13
2022-12-27T13:51:35.285Z,101539.41
2022-12-27T13:55:16.215Z,101554.44
2022-12-27T13:58:33.381Z,101554.94
2022-12-27T14:02:00.972Z,101541.69
2022-12-27T14:05:40.911Z,101553.25
2022-12-27T14:09:04.939Z,101557.56
2022-12-27T14:12:27.469Z,101555.47
2022-12-27T14:16:12.234Z,101568.00
2022-12-27T14:19:31.469Z,101577.78
2022-12-27T14:22:42.879Z,101598.03
2022-12-27T14:25:45.250Z,101612.84
2022-12-27T14:29:18.247Z,101623.69
2022-12-27T14:32:49.032Z,101620.41
2022-12-27T14:36:00.361Z,101625.75
2022-12-27T14:39:18.986Z,101637.66
2022-12-27T14:43:06.430Z,101637.06
2022-12-27T14:46:12.176Z,101644.22
2022-12-27T14:49:32.889Z,101647.16
2022-12-27T14:52:51.579Z,101648.62
2022-12-27T14:55:53.679Z,101644.38
2022-12-27T14:59:05.385Z,101650.44
2022-12-27T15:02:45.448Z,101647.22
2022-12-27T15:05:58.690Z,101655.62
2022-12-27T15:09:29.873Z,101654.56
2022-12-27T15:12:43.611Z,101654.44
2022-12-27T15:15:57.817Z,101657.78
2022-12-27T15:19:16.219Z,101657.72
2022-12-27T15:22:33.922Z,101672.03
2022-12-27T15:25:52.974Z,101673.19
2022-12-27T15:29:04.499Z,101679.25
2022-12-27T15:32:25.124Z,101689.16
2022-12-27T15:35:56.096Z,101702.25
2022-12-27T15:38:58.823Z,101688.38
2022-12-27T15:42:16.159Z,101699.31
2022-12-27T15:45:36.417Z,101694.19
2022-12-27T15:49:04.822Z,101695.91
2022-12-27T15:52:13.314Z,101697.81
2022-12-27T15:55:33.973Z,101696.66
2022-12-27T15:58:36.898Z,101708.75
2022-12-27T16:01:39.429Z,101710.97
2022-12-27T16:04:47.922Z,101717.72
2022-12-27T16:07:51.592Z,101725.56
2022-12-27T16:10:55.455Z,101715.91
2022-12-27T16:14:26.834Z,101721.41
2022-12-27T16:17:44.972Z,101715.44
2022-12-27T16:21:12.479Z,101724.22
2022-12-27T16:24:25.276Z,101713.66
2022-12-27T16:27:32.473Z,101718.97
2022-12-27T16:30:47.710Z,101721.13
2022-12-27T16:33:51.100Z,101719.62
2022-12-27T16:36:54.759Z,101720.41
2022-12-27T16:39:59.546Z,101709.09
2022-12-27T16:43:04.916Z,101717.63
2022-12-27T16:46:33.400Z,101711.34
2022-12-27T16:49:54.310Z,101712.38
2022-12-27T16:53:14.656Z,101716.16
2022-12-27T16:56:27.679Z,101702.94
2022-12-27T17:00:07.405Z,101697.75
2022-12-27T17:03:22.354Z,101704.37
2022-12-27T17:06:32.375Z,101721.47
2022-12-27T17:09:41.426Z,101717.03
2022-12-27T17:12:51.901Z,101733.22
2022-12-27T17:16:12.976Z,101739.63
2022-12-27T17:19:24.589Z,101751.69
2022-12-27T17:22:34.253Z,101756.44
2022-12-27T17:25:48.536Z,101753.66
2022-12-27T17:29:12.855Z,101759.41
2022-12-27T17:32:30.386Z,101756.19
2022-12-27T17:36:27.665Z,101762.03
2022-12-27T17:40:01.366Z,101765.47
2022-12-27T17:43:39.584Z,101771.56
2022-12-27T17:47:15.605Z,101779.91
2022-12-27T17:50:24.160Z,101776.59
2022-12-27T17:53:45.206Z,101788.53
2022-12-27T17:57:15.152Z,101782.81
2022-12-27T18:00:26.716Z,101799.63
2022-12-27T18:03:48.219Z,101797.00
2022-12-27T18:06:56.207Z,101791.59
2022-12-27T18:10:01.472Z,101796.91
2022-12-27T18:13:06.783Z,101805.50
2022-12-27T18:16:17.121Z,101816.03
2022-12-27T18:19:20.510Z,101804.91
2022-12-27T18:22:22.878Z,101816.44
2022-12-27T18:25:55.818Z,101817.59
2022-12-27T18:28:58.365Z,101817.00
2022-12-27T18:32:07.959Z,101827.75
2022-12-27T18:35:24.146Z,101838.16
2022-12-27T18:38:37.712Z,101825.06
2022-12-27T18:41:47.766Z,101821.41
2022-12-27T18:44:54.650Z,101820.50
2022-12-27T18:48:00.252Z,101828.06
2022-12-27T18:51:03.148Z,101826.06
2022-12-27T18:54:33.097Z,101823.22
2022-12-27T18:57:37.243Z,101823.84
2022-12-27T19:01:10.172Z,101822.94
2022-12-27T19:04:15.103Z,101818.38
2022-12-27T19:07:17.781Z,101826.72
2022-12-27T19:10:23.704Z,101834.69
2022-12-27T19:13:52.708Z,101825.72
2022-12-27T19:16:58.396Z,101830.13
2022-12-27T19:20:05.381Z,101832.28
2022-12-27T19:23:49.114Z,101833.84
2022-12-27T19:26:51.780Z,101846.53
2022-12-27T19:29:54.038Z,101842.63
2022-12-27T19:32:56.613Z,101842.00
2022-12-27T19:36:00.406Z,101835.28
2022-12-27T19:39:04.585Z,101836.25
2022-12-27T19:42:14.916Z,101836.50
2022-12-27T19:45:19.252Z,101835.03
2022-12-27T19:48:21.653Z,101832.69
2022-12-27T19:51:24.181Z,101839.09
2022-12-27T19:54:26.451Z,101841.84
2022-12-27T19:57:28.981Z,101839.47
2022-12-27T20:00:31.208Z,101848.03
2022-12-27T20:03:33.735Z,101854.28
2022-12-27T20:06:35.968Z,101843.84
2022-12-27T20:09:38.714Z,101845.66
2022-12-27T20:12:41.449Z,101843.84
2022-12-27T20:15:44.152Z,101833.37
2022-12-27T20:18:46.824Z,101822.94
2022-12-27T20:21:49.274Z,101823.09
2022-12-27T20:24:51.405Z,101828.59
2022-12-27T20:27:53.899Z,101839.22
2022-12-27T20:30:56.102Z,101849.84
2022-12-27T20:33:58.528Z,101845.59
2022-12-27T20:37:00.847Z,101843.91
2022-12-27T20:40:03.680Z,101849.12
2022-12-27T20:43:05.926Z,101852.47
2022-12-27T20:46:11.165Z,101869.94
2022-12-27T20:49:13.271Z,101877.00
2022-12-27T20:52:15.784Z,101881.47
2022-12-27T20:55:18.063Z,101866.03
2022-12-27T20:58:20.576Z,101858.41
2022-12-27T21:01:25.470Z,101853.34
2022-12-27T21:04:28.057Z,101855.16
2022-12-27T21:07:30.256Z,101859.50
2022-12-27T21:10:32.798Z,101871.50
2022-12-27T21:13:39.803Z,101873.28
2022-12-27T21:16:42.332Z,101870.75
2022-12-27T21:19:44.615Z,101875.22
2022-12-27T21:22:47.612Z,101876.12
2022-12-27T21:25:49.779Z,101873.59
2022-12-27T21:28:52.649Z,101870.16
2022-12-27T21:31:54.832Z,101876.25
2022-12-27T21:34:57.303Z,101874.56
2022-12-27T21:37:59.498Z,101885.13
2022-12-27T21:41:08.383Z,101886.00
2022-12-27T21:44:10.591Z,101881.41
2022-12-27T21:47:13.338Z,101876.00
2022-12-27T21:50:15.558Z,101875.19
2022-12-27T21:53:19.079Z,101882.97
2022-12-27T21:56:22.134Z,101880.34
2022-12-27T21:59:24.569Z,101879.56
2022-12-27T22:02:26.926Z,101876.12
2022-12-27T22:05:29.678Z,101872.75
2022-12-27T22:08:31.808Z,101871.09
2022-12-27T22:11:35.787Z,101880.69
2022-12-27T22:14:37.901Z,101885.88
2022-12-27T22:17:40.277Z,101883.22
2022-12-27T22:20:46.888Z,101886.63
2022-12-27T22:23:51.428Z,101884.03
2022-12-27T22:26:53.596Z,101886.59
2022-12-27T22:29:56.071Z,101878.72
2022-12-27T22:32:58.230Z,101882.97
2022-12-27T22:36:18.945Z,101882.13
2022-12-27T22:39:21.075Z,101882.16
2022-12-27T22:42:23.616Z,101888.34
2022-12-27T22:45:25.875Z,101884.87
2022-12-27T22:48:28.292Z,101872.75
2022-12-27T22:51:35.991Z,101871.06
2022-12-27T22:55:05.688Z,101870.16
2022-12-27T22:58:00.574Z,101860.59
2022-12-27T23:01:03.056Z,101859.78
2022-12-27T23:04:06.898Z,101861.56
2022-12-27T23:07:09.604Z,101866.88
2022-12-27T23:10:11.997Z,101859.91
2022-12-27T23:13:15.205Z,101856.34
2022-12-27T23:16:17.368Z,101856.44
2022-12-27T23:19:21.912Z,101857.34
2022-12-27T23:22:24.166Z,101857.41
2022-12-27T23:25:26.674Z,101856.59
2022-12-27T23:28:28.898Z,101853.19
2022-12-27T23:31:31.962Z,101856.72
2022-12-27T23:34:34.194Z,101858.50
2022-12-27T23:37:36.716Z,101852.44
2022-12-27T23:40:38.870Z,101854.22
2022-12-27T23:43:52.190Z,101844.78
2022-12-27T23:46:55.687Z,101841.41
2022-12-27T23:49:58.182Z,101840.63
2022-12-27T23:53:00.382Z,101820.72
2022-12-27T23:56:09.892Z,101812.97
2022-12-27T23:59:12.501Z,101812.97
